• Join FlightAware (Why Join?)
  • Login
  • US Flag 
11:05PM EST


 

Airport Tracker/Info


-or-


 

Live Flight TrackerFlight Track Log ✈ N9305N ✈ 16-Jan-2014 ✈ KGNV - KPIE

Flight Track Log - Related Links

Times and Time Zones

All times are in EST time to prevent confusion due to time zone crossing. See the N9305N flight status page for this flight to view local times or setup timezone preferences in your user account.

Time Position Orientation Groundspeed Altitude Reporting Facility
EST Latitude Longitude Course Direction KTS MPH feet Rate Location/Type
10:32AM 29.6450 -82.2783 152° Southeast 126 145 1,400  Level Jacksonville Center
10:33AM 29.6158 -82.2906 200° South 114 131 2,000 660 Climbing Jacksonville Center
10:35AM 29.5844 -82.2981 192° South 94 108 2,900 720 Climbing Jacksonville Center
10:35AM 29.5594 -82.3053 194° South 95 109 3,500 600 Climbing Jacksonville Center
10:36AM 29.5367 -82.3125 195° South 96 110 4,000 540 Climbing Jacksonville Center
10:37AM 29.5473 -82.3057 192° South  Level Estimated
10:37AM 29.5094 -82.3197 193° South 106 122 4,600  Level Jacksonville Center
10:38AM 29.4781 -82.3225 184° South 112 129 5,000 180 Climbing Jacksonville Center
10:39AM 29.4428 -82.3344 196° South 130 150 5,000  Level Jacksonville Center
10:41AM 29.4011 -82.3419 189° South 127 146 5,000  Level Jacksonville Center
10:42AM 29.3678 -82.3492 191° South 126 145 5,000  Level Jacksonville Center
10:43AM 29.3322 -82.3589 193° South 126 145 5,000  Level Jacksonville Center
10:44AM 29.2967 -82.3639 187° South 132 152 5,000  Level Jacksonville Center
10:45AM 29.2614 -82.3736 194° South 121 139 5,000  Level Jacksonville Center
10:46AM 29.2300 -82.3833 195° South 121 139 5,000  Level Jacksonville Center
10:47AM 29.1967 -82.3883 187° South 128 147 5,000  Level Jacksonville Center
10:48AM 29.1592 -82.3981 193° South 121 139 5,000  Level Jacksonville Center
10:49AM 29.1258 -82.4078 194° South 123 142 5,000  Level Jacksonville Center
10:50AM 29.0925 -82.4150 191° South 124 143 5,000  Level Jacksonville Center
10:51AM 29.0589 -82.4197 187° South 122 140 5,000  Level Jacksonville Center
10:52AM 29.0278 -82.4294 195° South 122 140 5,000  Level Jacksonville Center
10:53AM 28.9964 -82.4392 195° South 118 136 5,000 -60 Level Jacksonville Center
10:54AM 28.9547 -82.4464 189° South 124 143 4,900  Descending Jacksonville Center
10:55AM 28.9172 -82.4536 190° South 118 136 5,000  Climbing Jacksonville Center
10:56AM 28.8858 -82.4611 192° South 116 133 5,000  Level Jacksonville Center
10:58AM 28.8333 -82.4667 185° South 119 137 5,000  Level Tampa TRACON
10:59AM 28.8000 -82.4833 204° Southwest 121 139 5,000  Level Tampa TRACON
11:00AM 28.7667 -82.4833 180° South 122 140 5,000  Level Tampa TRACON
11:01AM 28.7333 -82.5000 204° Southwest 122 140 5,000  Level Tampa TRACON
11:02AM 28.7000 -82.5000 180° South 122 140 5,000  Level Tampa TRACON
11:03AM 28.6667 -82.5167 204° Southwest 121 139 5,000  Level Tampa TRACON
11:04AM 28.6333 -82.5167 180° South 113 130 5,000  Level Tampa TRACON
11:05AM 28.6000 -82.5333 204° Southwest 118 136 5,000  Level Tampa TRACON
11:06AM 28.5833 -82.5500 221° Southwest 118 136 5,000  Level Tampa TRACON
11:07AM 28.5500 -82.5667 204° Southwest 116 133 5,000  Level Tampa TRACON
11:08AM 28.5167 -82.5833 204° Southwest 117 135 5,000  Level Tampa TRACON
11:09AM 28.4833 -82.6000 204° Southwest 117 135 5,000  Level Tampa TRACON
11:10AM 28.4667 -82.6167 221° Southwest 120 138 5,000  Level Tampa TRACON
11:11AM 28.4333 -82.6167 180° South 121 139 5,000 -300 Level Tampa TRACON
11:12AM 28.4000 -82.6333 204° Southwest 121 139 4,500 -480 Descending Tampa TRACON
11:13AM 28.3667 -82.6500 204° Southwest 112 129 4,000 -240 Descending Tampa TRACON
11:14AM 28.3333 -82.6667 204° Southwest 106 122 4,000  Level Tampa TRACON
11:15AM 28.3167 -82.6833 221° Southwest 112 129 4,000  Level Tampa TRACON
11:16AM 28.2833 -82.7000 204° Southwest 108 124 4,000  Level Tampa TRACON
11:17AM 28.2667 -82.7333 240° Southwest 109 125 4,000  Level Tampa TRACON
11:18AM 28.2333 -82.7500 204° Southwest 113 130 4,000  Level Tampa TRACON
11:19AM 28.2167 -82.7667 221° Southwest 122 140 4,000  Level Tampa TRACON
11:20AM 28.1833 -82.7667 180° South 120 138 4,000  Level Tampa TRACON
11:21AM 28.1500 -82.7833 204° Southwest 116 133 4,000  Level Tampa TRACON
11:22AM 28.1167 -82.7833 180° South 116 133 4,000  Level Tampa TRACON
11:23AM 28.0833 -82.7833 180° South 124 143 4,000  Level Tampa TRACON
11:24AM 28.0500 -82.7667 156° South 128 147 4,000  Level Tampa TRACON
11:25AM 28.0167 -82.7667 180° South 125 144 4,000 -180 Level Tampa TRACON
11:26AM 27.9833 -82.7667 180° South 120 138 3,700 -420 Descending Tampa TRACON
11:27AM 27.9500 -82.7667 180° South 125 144 3,200 -420 Descending Tampa TRACON
11:28AM 27.9167 -82.7667 180° South 124 143 2,900 -120 Descending Tampa TRACON
11:29AM 27.8833 -82.7500 156° South 112 129 3,000  Climbing Tampa TRACON
11:30AM 27.8500 -82.7500 180° South 121 139 3,000  Level Tampa TRACON
11:31AM 27.8167 -82.7500 180° South 125 144 3,000 -60 Level Tampa TRACON
11:32AM 27.7667 -82.7500 180° South 119 137 2,900 -60 Descending Tampa TRACON
11:33AM 27.7500 -82.7333 138° Southeast 118 136 2,900  Level Tampa TRACON
11:34AM 27.7167 -82.7333 180° South 116 133 2,900  Level Tampa TRACON
11:35AM 27.6833 -82.7333 180° South 114 131 2,900  Level Tampa TRACON
11:36AM 27.6667 -82.7000 119° Southeast 117 135 3,000  Climbing Tampa TRACON
11:37AM 27.6667 -82.6667 90° East 121 139 3,000 -60 Level Tampa TRACON
11:38AM 27.7000 -82.6500 24° Northeast 89 102 2,900 -180 Descending Tampa TRACON
11:39AM 27.7167 -82.6500 360° North 89 102 2,700 -420 Descending Tampa TRACON
11:40AM 27.7500 -82.6667 336° Northwest 99 114 2,100 -360 Descending Tampa TRACON
11:41AM 27.7667 -82.6667 360° North 91 105 2,000 -60 Descending Tampa TRACON
11:42AM 27.8000 -82.6667 360° North 100 115 2,000 -240 Level Tampa TRACON
11:43AM 27.8167 -82.6667 360° North 82 94 1,600 -420 Descending Tampa TRACON
11:44AM 27.8500 -82.6833 336° Northwest 76 87 1,200 -420 Descending Tampa TRACON
11:45AM 27.8667 -82.6833 360° North 81 93 800 -420 Descending Tampa TRACON
11:46AM 27.8833 -82.6833 360° North 81 93 400 -420 Descending Tampa TRACON